createdAt,value
2022-11-01T00:01:58.792Z,97.22
2022-11-01T00:04:28.773Z,15.80
2022-11-01T00:06:57.590Z,14.38
2022-11-01T00:09:26.149Z,16.30
2022-11-01T00:11:55.418Z,123.82
2022-11-01T00:14:23.980Z,24.35
2022-11-01T00:16:53.660Z,25.08
2022-11-01T00:19:22.061Z,20.77
2022-11-01T00:21:52.734Z,26.42
2022-11-01T00:24:21.701Z,18.25
2022-11-01T00:26:50.069Z,26.60
2022-11-01T00:29:19.217Z,18.02
2022-11-01T00:31:47.761Z,13.32
2022-11-01T00:34:17.281Z,13.18
2022-11-01T00:36:46.894Z,13.45
2022-11-01T00:39:17.553Z,14.25
2022-11-01T00:41:46.746Z,15.60
2022-11-01T00:44:15.135Z,10.43
2022-11-01T00:46:44.605Z,17.52
2022-11-01T00:49:12.990Z,13.55
2022-11-01T00:51:42.329Z,12.70
2022-11-01T00:54:10.693Z,53.45
2022-11-01T00:56:41.502Z,17.15
2022-11-01T00:59:09.943Z,10.60
2022-11-01T01:01:39.275Z,23.35
2022-11-01T01:04:07.813Z,22.65
2022-11-01T01:06:36.454Z,80.28
2022-11-01T01:09:05.278Z,27.23
2022-11-01T01:11:34.157Z,116.00
2022-11-01T01:14:04.409Z,13.43
2022-11-01T01:16:33.308Z,39.45
2022-11-01T01:19:01.681Z,79.05
2022-11-01T01:21:30.884Z,49.70
2022-11-01T01:23:59.221Z,25.58
2022-11-01T01:26:28.328Z,30.10
2022-11-01T01:28:57.072Z,41.58
2022-11-01T01:31:26.840Z,38.63
2022-11-01T01:33:56.119Z,24.15
2022-11-01T01:36:25.087Z,66.40
2022-11-01T01:38:54.581Z,17.67
2022-11-01T01:41:41.056Z,97.45
2022-11-01T01:45:05.626Z,33.17
2022-11-01T01:47:38.094Z,136.02
2022-11-01T01:50:09.154Z,15.82
2022-11-01T01:52:41.718Z,41.67
2022-11-01T01:55:11.860Z,77.32
2022-11-01T01:57:42.734Z,106.70
2022-11-01T02:00:12.703Z,111.75
2022-11-01T02:02:44.726Z,189.10
2022-11-01T02:05:19.522Z,341.83
2022-11-01T02:07:48.097Z,261.35
2022-11-01T02:10:17.595Z,210.90
2022-11-01T02:12:48.704Z,87.40
2022-11-01T02:15:22.097Z,98.20
2022-11-01T02:18:05.397Z,79.70
2022-11-01T02:21:06.360Z,150.57
2022-11-01T02:24:08.632Z,132.77
2022-11-01T02:26:59.389Z,79.80
2022-11-01T02:30:09.329Z,42.17
2022-11-01T02:33:05.467Z,18.88
2022-11-01T02:35:44.711Z,99.28
2022-11-01T02:38:20.339Z,91.40
2022-11-01T02:41:00.577Z,351.77
2022-11-01T02:43:35.057Z,89.38
2022-11-01T02:46:21.806Z,150.35
2022-11-01T02:48:52.137Z,11.55
2022-11-01T02:51:24.180Z,32.72
2022-11-01T02:53:52.592Z,42.92
2022-11-01T02:56:23.212Z,28.63
2022-11-01T02:58:53.728Z,12.00
2022-11-01T03:01:27.415Z,15.60
2022-11-01T03:03:59.361Z,26.42
2022-11-01T03:06:34.800Z,29.05
2022-11-01T03:09:05.816Z,18.85
2022-11-01T03:11:41.540Z,8.73
2022-11-01T03:14:21.295Z,14.75
2022-11-01T03:16:56.567Z,7.18
2022-11-01T03:19:36.372Z,7.82
2022-11-01T03:22:11.790Z,8.15
2022-11-01T03:24:46.827Z,13.35
2022-11-01T03:27:21.628Z,16.30
2022-11-01T03:29:57.004Z,8.07
2022-11-01T03:32:29.969Z,7.43
2022-11-01T03:35:02.279Z,7.78
2022-11-01T03:37:33.900Z,11.98
2022-11-01T03:40:05.327Z,9.48
2022-11-01T03:42:35.836Z,6.10
2022-11-01T03:45:10.883Z,7.43
2022-11-01T03:47:39.375Z,9.05
2022-11-01T03:50:18.553Z,6.75
2022-11-01T03:52:47.215Z,6.45
2022-11-01T03:55:20.286Z,7.10
2022-11-01T03:57:50.081Z,6.22
2022-11-01T04:00:21.832Z,6.60
2022-11-01T04:02:50.716Z,46.45
2022-11-01T04:05:22.410Z,53.17
2022-11-01T04:07:52.164Z,10.20
2022-11-01T04:10:21.928Z,41.03
2022-11-01T04:12:52.749Z,17.48
2022-11-01T04:15:40.528Z,49.97
2022-11-01T04:18:32.988Z,6.57
2022-11-01T04:21:06.856Z,6.78
2022-11-01T04:23:35.908Z,8.07
2022-11-01T04:26:05.611Z,12.65
2022-11-01T04:28:34.373Z,30.73
2022-11-01T04:31:03.335Z,7.75
2022-11-01T04:33:32.622Z,7.30
2022-11-01T04:36:06.958Z,7.60
2022-11-01T04:38:35.389Z,12.80
2022-11-01T04:41:03.789Z,81.45
2022-11-01T04:43:33.024Z,36.53
2022-11-01T04:46:01.947Z,33.13
2022-11-01T04:48:30.291Z,153.30
2022-11-01T04:51:01.603Z,137.20
2022-11-01T04:53:31.319Z,24.05
2022-11-01T04:55:59.665Z,18.98
2022-11-01T04:58:28.060Z,44.65
2022-11-01T05:00:56.558Z,19.42
2022-11-01T05:03:25.162Z,10.10
2022-11-01T05:05:53.559Z,7.40
2022-11-01T05:08:21.875Z,7.95
2022-11-01T05:10:54.613Z,14.30
2022-11-01T05:13:23.078Z,49.20
2022-11-01T05:16:06.588Z,62.33
2022-11-01T05:18:43.290Z,11.85
2022-11-01T05:21:12.417Z,6.15
2022-11-01T05:23:40.849Z,16.70
2022-11-01T05:26:11.028Z,38.97
2022-11-01T05:28:39.436Z,20.05
2022-11-01T05:31:08.395Z,61.42
2022-11-01T05:33:36.759Z,33.72
2022-11-01T05:36:06.749Z,19.92
2022-11-01T05:38:35.164Z,46.90
2022-11-01T05:41:04.850Z,16.42
2022-11-01T05:43:34.856Z,6.43
2022-11-01T05:46:04.991Z,9.80
2022-11-01T05:48:34.383Z,20.92
2022-11-01T05:51:03.264Z,15.93
2022-11-01T05:53:31.617Z,41.63
2022-11-01T05:56:01.368Z,26.20
2022-11-01T05:58:31.178Z,4.93
2022-11-01T06:01:01.685Z,5.38
2022-11-01T06:03:30.910Z,7.50
2022-11-01T06:05:59.735Z,6.00
2022-11-01T06:08:29.329Z,5.47
2022-11-01T06:11:03.033Z,46.38
2022-11-01T06:13:32.024Z,6.32
2022-11-01T06:16:03.648Z,7.90
2022-11-01T06:18:32.102Z,6.68
2022-11-01T06:21:01.437Z,5.82
2022-11-01T06:23:29.839Z,8.02
2022-11-01T06:26:02.607Z,14.35
2022-11-01T06:28:31.020Z,14.80
2022-11-01T06:31:03.122Z,6.03
2022-11-01T06:33:32.140Z,5.38
2022-11-01T06:36:02.259Z,6.80
2022-11-01T06:38:30.879Z,4.65
2022-11-01T06:41:00.207Z,6.00
2022-11-01T06:43:29.109Z,4.97
2022-11-01T06:46:01.881Z,8.82
2022-11-01T06:48:31.335Z,51.53
2022-11-01T06:50:59.775Z,7.90
2022-11-01T06:53:29.025Z,7.30
2022-11-01T06:55:59.660Z,6.30
2022-11-01T06:58:29.357Z,4.50
2022-11-01T07:00:57.762Z,4.90
2022-11-01T07:03:28.515Z,4.60
2022-11-01T07:05:57.374Z,4.88
2022-11-01T07:08:25.763Z,4.03
2022-11-01T07:10:55.596Z,3.85
2022-11-01T07:13:24.503Z,3.85
2022-11-01T07:15:52.833Z,4.00
2022-11-01T07:18:21.671Z,3.97
2022-11-01T07:20:51.826Z,4.10
2022-11-01T07:23:20.550Z,4.13
2022-11-01T07:25:52.045Z,4.47
2022-11-01T07:28:21.443Z,4.75
2022-11-01T07:30:50.261Z,4.05
2022-11-01T07:33:19.887Z,3.97
2022-11-01T07:35:48.911Z,4.53
2022-11-01T07:38:19.135Z,6.65
2022-11-01T07:40:49.888Z,7.50
2022-11-01T07:43:18.746Z,5.93
2022-11-01T07:45:48.651Z,5.45
2022-11-01T07:48:19.558Z,5.30
2022-11-01T07:50:48.422Z,5.28
2022-11-01T07:53:20.605Z,5.53
2022-11-01T07:55:49.886Z,5.85
2022-11-01T07:58:18.576Z,6.47
2022-11-01T08:00:47.698Z,6.88
2022-11-01T08:03:18.274Z,6.75
2022-11-01T08:05:49.363Z,5.93
2022-11-01T08:08:19.449Z,9.10
2022-11-01T08:10:47.828Z,7.95
2022-11-01T08:13:18.404Z,6.50
2022-11-01T08:15:47.648Z,6.78
2022-11-01T08:18:16.662Z,7.57
2022-11-01T08:20:47.055Z,6.15
2022-11-01T08:23:15.457Z,6.43
2022-11-01T08:25:45.314Z,8.07
2022-11-01T08:28:15.774Z,7.97
2022-11-01T08:30:46.723Z,7.97
2022-11-01T08:33:16.127Z,8.13
2022-11-01T08:35:50.211Z,8.25
2022-11-01T08:38:20.078Z,8.15
2022-11-01T08:40:49.837Z,6.70
2022-11-01T08:43:18.413Z,8.25
2022-11-01T08:45:47.256Z,8.68
2022-11-01T08:48:16.113Z,8.07
2022-11-01T08:50:44.983Z,11.13
2022-11-01T08:53:15.226Z,10.00
2022-11-01T08:55:44.296Z,10.32
2022-11-01T08:58:14.586Z,13.82
2022-11-01T09:00:44.723Z,11.27
2022-11-01T09:03:15.283Z,12.45
2022-11-01T09:05:43.702Z,13.45
2022-11-01T09:08:12.626Z,11.30
2022-11-01T09:10:41.469Z,16.75
2022-11-01T09:13:10.415Z,21.05
2022-11-01T09:15:40.601Z,17.63
2022-11-01T09:18:10.009Z,14.70
2022-11-01T09:20:38.803Z,12.10
2022-11-01T09:23:07.605Z,13.02
2022-11-01T09:25:37.139Z,12.32
2022-11-01T09:28:05.836Z,12.95
2022-11-01T09:30:34.679Z,13.25
2022-11-01T09:33:07.192Z,14.80
2022-11-01T09:35:36.458Z,10.68
2022-11-01T09:38:05.196Z,13.00
2022-11-01T09:40:44.516Z,9.00
2022-11-01T09:43:21.093Z,13.15
2022-11-01T09:45:53.066Z,10.65
2022-11-01T09:48:25.534Z,9.30
2022-11-01T09:50:55.164Z,10.40
2022-11-01T09:53:27.355Z,11.00
2022-11-01T09:56:05.348Z,10.00
2022-11-01T09:58:46.518Z,11.25
2022-11-01T10:01:28.111Z,12.13
2022-11-01T10:04:09.760Z,9.65
2022-11-01T10:06:43.611Z,12.60
2022-11-01T10:09:22.672Z,14.27
2022-11-01T10:12:14.028Z,10.82
2022-11-01T10:14:55.635Z,9.18
2022-11-01T10:17:47.023Z,10.43
2022-11-01T10:20:21.433Z,10.75
2022-11-01T10:22:51.206Z,11.13
2022-11-01T10:25:23.225Z,11.73
2022-11-01T10:27:58.684Z,9.82
2022-11-01T10:30:31.698Z,11.77
2022-11-01T10:33:04.553Z,11.75
2022-11-01T10:35:38.865Z,10.02
2022-11-01T10:38:49.591Z,8.93
2022-11-01T10:41:13.800Z,10.35
2022-11-01T10:43:48.115Z,11.40
2022-11-01T10:46:21.323Z,8.32
2022-11-01T10:48:53.324Z,12.63
2022-11-01T10:51:28.073Z,14.82
2022-11-01T10:54:00.001Z,13.27
2022-11-01T10:56:34.740Z,14.63
2022-11-01T10:59:06.141Z,10.25
2022-11-01T11:01:42.769Z,13.43
2022-11-01T11:04:16.017Z,10.55
2022-11-01T11:06:45.952Z,10.43
2022-11-01T11:09:24.062Z,9.73
2022-11-01T11:11:54.997Z,10.35
2022-11-01T11:14:24.058Z,8.93
2022-11-01T11:16:55.647Z,9.82
2022-11-01T11:19:32.695Z,11.18
2022-11-01T11:22:06.944Z,14.05
2022-11-01T11:24:39.153Z,10.80
2022-11-01T11:27:19.066Z,10.45
2022-11-01T11:29:51.472Z,12.13
2022-11-01T11:32:21.964Z,14.55
2022-11-01T11:34:56.618Z,11.32
2022-11-01T11:37:29.748Z,12.13
2022-11-01T11:40:04.075Z,10.50
2022-11-01T11:42:33.213Z,12.55
2022-11-01T11:45:17.056Z,8.55
2022-11-01T11:47:47.007Z,9.02
2022-11-01T11:50:26.213Z,10.63
2022-11-01T11:53:01.146Z,10.43
2022-11-01T11:55:38.557Z,11.45
2022-11-01T11:58:20.678Z,12.25
2022-11-01T12:00:54.560Z,14.43
2022-11-01T12:03:23.684Z,9.75
2022-11-01T12:05:55.721Z,10.90
2022-11-01T12:08:39.395Z,13.80
2022-11-01T12:11:07.895Z,13.02
2022-11-01T12:13:39.386Z,7.07
2022-11-01T12:16:20.388Z,10.05
2022-11-01T12:18:52.636Z,10.60
2022-11-01T12:21:27.729Z,12.00
2022-11-01T12:24:04.197Z,10.13
2022-11-01T12:26:37.421Z,15.35
2022-11-01T12:29:20.673Z,13.15
2022-11-01T12:31:50.291Z,12.93
2022-11-01T12:34:23.380Z,9.48
2022-11-01T12:36:58.490Z,9.45
2022-11-01T12:39:44.711Z,8.07
2022-11-01T12:42:20.062Z,11.07
2022-11-01T12:44:52.753Z,11.85
2022-11-01T12:47:26.313Z,8.63
2022-11-01T12:49:58.903Z,8.15
2022-11-01T12:52:33.049Z,9.68
2022-11-01T12:55:10.114Z,9.25
2022-11-01T12:57:38.991Z,12.05
2022-11-01T13:00:09.241Z,9.02
2022-11-01T13:03:05.756Z,8.43
2022-11-01T13:05:50.783Z,10.02
2022-11-01T13:08:27.685Z,13.18
2022-11-01T13:11:04.365Z,10.70
2022-11-01T13:13:40.509Z,10.40
2022-11-01T13:16:16.768Z,14.45
2022-11-01T13:18:52.539Z,9.50
2022-11-01T13:21:34.673Z,8.38
2022-11-01T13:24:14.321Z,9.77
2022-11-01T13:26:50.422Z,12.68
2022-11-01T13:29:24.260Z,8.48
2022-11-01T13:32:04.541Z,12.35
2022-11-01T13:34:43.453Z,14.93
2022-11-01T13:37:22.073Z,13.80
2022-11-01T13:40:08.352Z,8.32
2022-11-01T13:42:42.023Z,10.02
2022-11-01T13:45:51.353Z,9.00
2022-11-01T13:48:34.088Z,7.38
2022-11-01T13:51:13.690Z,7.90
2022-11-01T13:53:47.060Z,8.75
2022-11-01T13:56:22.305Z,7.10
2022-11-01T13:58:52.160Z,10.13
2022-11-01T14:01:32.825Z,9.32
2022-11-01T14:04:46.825Z,7.47
2022-11-01T14:07:17.140Z,7.65
2022-11-01T14:09:48.047Z,6.85
2022-11-01T14:12:43.338Z,6.90
2022-11-01T14:15:25.360Z,7.05
2022-11-01T14:18:07.484Z,9.13
2022-11-01T14:20:53.741Z,12.63
2022-11-01T14:23:51.129Z,7.35
2022-11-01T14:26:36.949Z,7.97
2022-11-01T14:29:12.682Z,6.05
2022-11-01T14:31:45.995Z,6.53
2022-11-01T14:34:27.724Z,5.57
2022-11-01T14:37:01.937Z,8.02
2022-11-01T14:39:37.435Z,6.90
2022-11-01T14:42:12.005Z,6.82
2022-11-01T14:44:48.119Z,6.93
2022-11-01T14:47:33.051Z,5.47
2022-11-01T14:50:07.770Z,5.50
2022-11-01T14:52:42.470Z,7.22
2022-11-01T14:55:18.474Z,7.07
2022-11-01T14:57:48.503Z,7.15
2022-11-01T15:00:28.896Z,6.93
2022-11-01T15:03:01.765Z,7.72
2022-11-01T15:05:30.211Z,9.73
2022-11-01T15:08:00.548Z,6.15
2022-11-01T15:10:40.504Z,6.25
2022-11-01T15:13:09.449Z,6.68
2022-11-01T15:15:39.104Z,7.13
2022-11-01T15:18:16.960Z,7.10
2022-11-01T15:20:50.264Z,9.95
2022-11-01T15:23:21.684Z,5.55
2022-11-01T15:25:52.671Z,8.10
2022-11-01T15:28:24.696Z,6.25
2022-11-01T15:30:57.368Z,6.53
2022-11-01T15:33:30.756Z,7.57
2022-11-01T15:36:01.298Z,7.13
2022-11-01T15:38:33.291Z,9.23
2022-11-01T15:41:20.177Z,12.63
2022-11-01T15:43:53.331Z,15.20
2022-11-01T15:46:23.054Z,22.25
2022-11-01T15:48:56.284Z,18.52
2022-11-01T15:51:28.319Z,16.08
2022-11-01T15:54:02.233Z,12.63
2022-11-01T15:56:42.988Z,6.65
2022-11-01T15:59:20.071Z,6.50
2022-11-01T16:01:50.438Z,7.32
2022-11-01T16:04:22.561Z,9.43
2022-11-01T16:06:57.314Z,8.13
2022-11-01T16:09:36.714Z,7.97
2022-11-01T16:12:13.988Z,9.27
2022-11-01T16:14:43.431Z,12.50
2022-11-01T16:17:25.115Z,12.18
2022-11-01T16:19:55.466Z,8.38
2022-11-01T16:22:47.552Z,7.25
2022-11-01T16:25:20.764Z,7.72
2022-11-01T16:28:03.694Z,6.82
2022-11-01T16:30:37.798Z,9.10
2022-11-01T16:33:17.519Z,7.13
2022-11-01T16:35:48.992Z,7.70
2022-11-01T16:38:26.311Z,6.13
2022-11-01T16:40:57.719Z,7.03
2022-11-01T16:43:29.411Z,10.23
2022-11-01T16:45:58.983Z,10.75
2022-11-01T16:48:30.619Z,9.43
2022-11-01T16:51:03.120Z,9.63
2022-11-01T16:53:32.197Z,8.85
2022-11-01T16:56:35.008Z,10.35
2022-11-01T16:59:05.880Z,8.63
2022-11-01T17:01:36.904Z,11.55
2022-11-01T17:04:06.892Z,10.20
2022-11-01T17:06:39.485Z,13.65
2022-11-01T17:09:14.426Z,14.93
2022-11-01T17:11:50.886Z,10.10
2022-11-01T17:14:21.808Z,9.82
2022-11-01T17:16:53.958Z,10.20
2022-11-01T17:19:30.699Z,11.18
2022-11-01T17:22:04.586Z,15.43
2022-11-01T17:24:35.758Z,21.27
2022-11-01T17:27:06.812Z,50.22
2022-11-01T17:29:37.017Z,25.65
2022-11-01T17:32:10.484Z,21.38
2022-11-01T17:34:40.491Z,18.27
2022-11-01T17:37:17.736Z,22.85
2022-11-01T17:39:47.020Z,27.67
2022-11-01T17:42:17.446Z,31.40
2022-11-01T17:44:47.929Z,34.50
2022-11-01T17:47:17.243Z,23.30
2022-11-01T17:49:46.901Z,18.85
2022-11-01T17:52:18.435Z,18.98
2022-11-01T17:54:47.947Z,17.92
2022-11-01T17:57:18.735Z,15.45
2022-11-01T17:59:48.818Z,16.35
2022-11-01T18:02:18.716Z,18.33
2022-11-01T18:04:48.928Z,15.75
2022-11-01T18:07:21.364Z,15.43
2022-11-01T18:09:50.653Z,13.20
2022-11-01T18:12:35.074Z,17.35
2022-11-01T18:15:15.818Z,17.77
2022-11-01T18:17:55.940Z,15.88
2022-11-01T18:20:39.268Z,17.67
2022-11-01T18:23:14.038Z,17.48
2022-11-01T18:25:47.912Z,13.68
2022-11-01T18:28:20.091Z,21.63
2022-11-01T18:30:55.582Z,148.85
2022-11-01T18:33:34.455Z,35.10
2022-11-01T18:36:14.252Z,19.80
2022-11-01T18:38:52.455Z,21.35
2022-11-01T18:41:23.420Z,22.25
2022-11-01T18:43:54.082Z,29.33
2022-11-01T18:46:26.250Z,25.42
2022-11-01T18:49:00.601Z,21.48
2022-11-01T18:51:31.679Z,25.15
2022-11-01T18:54:20.691Z,29.83
2022-11-01T18:56:52.635Z,23.05
2022-11-01T18:59:30.602Z,25.15
2022-11-01T19:02:03.939Z,20.77
2022-11-01T19:04:35.639Z,25.75
2022-11-01T19:07:13.003Z,21.90
2022-11-01T19:09:47.098Z,21.13
2022-11-01T19:12:25.481Z,25.58
2022-11-01T19:15:00.127Z,24.35
2022-11-01T19:17:30.551Z,23.98
2022-11-01T19:19:59.759Z,21.35
2022-11-01T19:22:34.253Z,19.23
2022-11-01T19:25:16.939Z,22.10
2022-11-01T19:27:45.780Z,18.15
2022-11-01T19:30:33.155Z,21.10
2022-11-01T19:33:16.501Z,25.75
2022-11-01T19:35:45.846Z,20.67
2022-11-01T19:38:16.280Z,21.45
2022-11-01T19:40:52.045Z,17.65
2022-11-01T19:43:22.259Z,16.10
2022-11-01T19:45:52.964Z,24.55
2022-11-01T19:48:23.462Z,23.92
2022-11-01T19:50:52.010Z,17.48
2022-11-01T19:53:23.588Z,21.80
2022-11-01T19:56:00.765Z,15.57
2022-11-01T19:58:39.429Z,18.33
2022-11-01T20:01:25.924Z,21.25
2022-11-01T20:03:57.305Z,17.23
2022-11-01T20:06:32.928Z,24.77
2022-11-01T20:09:06.857Z,20.58
2022-11-01T20:11:37.465Z,34.67
2022-11-01T20:14:06.124Z,30.75
2022-11-01T20:16:35.353Z,21.80
2022-11-01T20:19:03.756Z,18.67
2022-11-01T20:21:33.938Z,17.92
2022-11-01T20:24:04.305Z,15.82
2022-11-01T20:26:33.133Z,14.48
2022-11-01T20:29:03.118Z,21.88
2022-11-01T20:31:32.996Z,14.95
2022-11-01T20:34:01.573Z,18.42
2022-11-01T20:36:30.858Z,14.63
2022-11-01T20:38:59.385Z,16.17
2022-11-01T20:41:28.441Z,21.27
2022-11-01T20:43:56.957Z,19.65
2022-11-01T20:46:27.528Z,19.17
2022-11-01T20:48:55.974Z,21.25
2022-11-01T20:51:24.321Z,17.80
2022-11-01T20:53:54.912Z,13.68
2022-11-01T20:56:23.288Z,13.32
2022-11-01T20:58:52.724Z,13.20
2022-11-01T21:01:22.255Z,13.73
2022-11-01T21:03:53.730Z,12.55
2022-11-01T21:06:23.826Z,13.50
2022-11-01T21:08:52.751Z,18.90
2022-11-01T21:11:25.126Z,13.05
2022-11-01T21:13:54.600Z,10.80
2022-11-01T21:16:25.292Z,13.18
2022-11-01T21:19:01.088Z,12.40
2022-11-01T21:21:35.126Z,12.40
2022-11-01T21:24:27.078Z,16.55
2022-11-01T21:27:01.724Z,16.67
2022-11-01T21:29:30.637Z,13.32
2022-11-01T21:31:59.944Z,13.75
2022-11-01T21:34:31.857Z,14.38
2022-11-01T21:37:01.324Z,14.27
2022-11-01T21:39:33.218Z,13.95
2022-11-01T21:42:05.712Z,16.58
2022-11-01T21:44:40.073Z,12.48
2022-11-01T21:47:16.346Z,12.55
2022-11-01T21:49:46.842Z,15.88
2022-11-01T21:52:15.499Z,11.43
2022-11-01T21:54:44.823Z,14.80
2022-11-01T21:57:14.607Z,11.70
2022-11-01T21:59:44.825Z,11.13
2022-11-01T22:02:15.028Z,13.88
2022-11-01T22:04:44.883Z,13.15
2022-11-01T22:07:15.187Z,10.73
2022-11-01T22:09:43.565Z,10.43
2022-11-01T22:12:12.495Z,11.88
2022-11-01T22:14:40.929Z,15.30
2022-11-01T22:17:09.316Z,10.82
2022-11-01T22:19:38.089Z,10.07
2022-11-01T22:22:06.500Z,10.55
2022-11-01T22:24:36.783Z,9.75
2022-11-01T22:27:05.225Z,12.23
2022-11-01T22:29:33.988Z,12.70
2022-11-01T22:32:03.154Z,12.52
2022-11-01T22:34:31.992Z,13.40
2022-11-01T22:37:01.392Z,14.43
2022-11-01T22:39:31.411Z,12.40
2022-11-01T22:42:02.293Z,15.77
2022-11-01T22:44:33.056Z,12.55
2022-11-01T22:47:03.612Z,10.68
2022-11-01T22:49:35.049Z,11.27
2022-11-01T22:52:11.902Z,10.02
2022-11-01T22:54:43.916Z,10.73
2022-11-01T22:57:17.140Z,11.68
2022-11-01T22:59:47.699Z,10.60
2022-11-01T23:02:27.447Z,8.93
2022-11-01T23:05:02.897Z,11.68
2022-11-01T23:07:35.153Z,12.55
2022-11-01T23:10:06.255Z,11.93
2022-11-01T23:12:55.533Z,10.93
2022-11-01T23:15:28.120Z,7.75
2022-11-01T23:18:03.264Z,7.13
2022-11-01T23:20:31.707Z,7.95
2022-11-01T23:23:00.945Z,7.85
2022-11-01T23:25:32.989Z,8.15
2022-11-01T23:28:03.121Z,7.28
2022-11-01T23:30:31.576Z,10.43
2022-11-01T23:33:00.936Z,7.80
2022-11-01T23:35:30.041Z,9.30
2022-11-01T23:38:00.107Z,8.88
2022-11-01T23:40:33.798Z,9.93
2022-11-01T23:43:04.349Z,7.80
2022-11-01T23:45:35.502Z,9.50
2022-11-01T23:48:04.627Z,10.93
2022-11-01T23:50:36.162Z,10.75
2022-11-01T23:53:07.609Z,8.75
2022-11-01T23:55:40.169Z,11.20
2022-11-01T23:58:13.473Z,8.30
